Time;durP1;ratioP1;P1;durP2;ratioP2;P2;SDS_P1;SDS_P2;PMS_P1;PMS_P2;Temp;Humidity;BMP_temperature;BMP_pressure;BME280_temperature;BME280_humidity;BME280_pressure;Samples;Min_cycle;Max_cycle;Signal;HPM_P1;HPM_P2
2021/10/24 00:00:14;;;;;;;;;;;6.30;74.80;;;;;;4976015;28;20034;-76
2021/10/24 00:02:40;;;;;;;5.47;1.10;;;6.20;75.70;;;;;;4995430;28;19910;-77
2021/10/24 00:05:07;;;;;;;;;;;6.10;75.80;;;;;;4976659;28;20491;-76
2021/10/24 00:07:33;;;;;;;5.93;1.20;;;5.90;76.30;;;;;;4993899;28;19976;-76
2021/10/24 00:09:58;;;;;;;3.25;0.65;;;5.80;77.10;;;;;;4992163;28;20475;-76
2021/10/24 00:12:24;;;;;;;4.28;1.00;;;5.60;78.20;;;;;;4991028;28;20475;-77
2021/10/24 00:14:50;;;;;;;;;;;5.50;78.80;;;;;;4974013;28;20154;-76
2021/10/24 00:17:16;;;;;;;8.25;1.67;;;5.40;79.30;;;;;;4989376;28;20286;-75
2021/10/24 00:19:42;;;;;;;7.95;1.50;;;5.40;80.10;;;;;;4973062;28;20027;-76
2021/10/24 00:22:08;;;;;;;6.53;1.33;;;5.40;79.80;;;;;;4991550;28;20455;-76
2021/10/24 00:24:34;;;;;;;;;;;5.30;80.30;;;;;;4993909;28;20387;-77
2021/10/24 00:27:00;;;;;;;6.47;1.30;;;5.20;80.80;;;;;;4994830;28;20452;-75
2021/10/24 00:29:26;;;;;;;;;;;5.20;81.00;;;;;;4984728;28;20453;-76
2021/10/24 00:31:52;;;;;;;6.37;0.70;;;5.20;80.70;;;;;;4979041;28;19991;-76
2021/10/24 00:34:17;;;;;;;;;;;5.10;80.40;;;;;;4977567;28;20502;-77
2021/10/24 00:36:43;;;;;;;6.10;0.90;;;5.10;80.70;;;;;;4994848;28;19917;-75
2021/10/24 00:39:09;;;;;;;9.00;1.20;;;5.00;80.90;;;;;;4977490;28;20084;-76
2021/10/24 00:41:35;;;;;;;2.47;0.80;;;5.00;81.50;;;;;;4995172;28;20035;-77
2021/10/24 00:44:21;;;;;;;2.92;0.70;;;4.90;82.10;;;;;;4995904;28;20037;-76
2021/10/24 00:46:49;;;;;;;4.68;1.05;;;4.90;83.30;;;;;;4979841;28;20057;-76
2021/10/24 00:49:15;;;;;;;7.25;1.65;;;4.90;84.00;;;;;;4978849;28;20030;-75
2021/10/24 00:51:40;;;;;;;;;;;4.80;84.60;;;;;;4996796;28;20066;-76
2021/10/24 00:54:07;;;;;;;5.22;0.93;;;4.80;85.30;;;;;;4996422;28;19909;-76
2021/10/24 00:56:33;;;;;;;5.63;0.77;;;4.80;85.90;;;;;;4996043;28;20054;-76
2021/10/24 00:59:00;;;;;;;7.00;1.60;;;4.80;85.90;;;;;;4986334;28;20058;-77
2021/10/24 01:01:26;;;;;;;4.50;0.88;;;4.80;86.30;;;;;;5003247;28;20037;-76
2021/10/24 01:03:53;;;;;;;4.45;1.05;;;4.80;86.30;;;;;;4994215;28;20050;-76
2021/10/24 01:06:18;;;;;;;;;;;4.80;86.50;;;;;;4976602;28;20081;-75
2021/10/24 01:08:44;;;;;;;5.82;1.35;;;4.70;86.70;;;;;;4976273;28;19912;-76
2021/10/24 01:11:10;;;;;;;10.63;2.25;;;4.60;87.40;;;;;;4993899;28;20046;-76
2021/10/24 01:13:35;;;;;;;8.30;2.25;;;4.50;88.00;;;;;;4995289;28;20030;-76
2021/10/24 01:16:17;;;;;;;7.07;2.40;;;4.40;88.60;;;;;;4976145;28;20472;-76
2021/10/24 01:18:44;;;;;;;15.18;3.85;;;4.40;90.00;;;;;;4995025;28;20035;-76
2021/10/24 01:21:10;;;;;;;11.00;2.63;;;4.20;90.20;;;;;;4976868;28;20569;-76
2021/10/24 01:23:36;;;;;;;;;;;4.20;90.70;;;;;;4995509;28;20022;-75
2021/10/24 01:26:02;;;;;;;7.57;1.80;;;4.00;91.10;;;;;;4978000;28;20012;-76
2021/10/24 01:28:28;;;;;;;9.10;2.20;;;4.00;91.50;;;;;;4993973;28;20033;-77
2021/10/24 01:30:54;;;;;;;;;;;3.90;91.80;;;;;;4977667;28;20030;-76
2021/10/24 01:33:20;;;;;;;3.83;0.98;;;3.80;92.20;;;;;;4977370;28;20401;-76
2021/10/24 01:36:07;;;;;;;;;;;3.80;92.90;;;;;;4978270;28;20030;-76
2021/10/24 01:38:34;;;;;;;8.40;1.38;;;3.70;92.90;;;;;;4977855;28;20399;-76
2021/10/24 01:41:00;;;;;;;7.13;1.10;;;3.70;93.40;;;;;;4997294;28;20041;-77
2021/10/24 01:43:27;;;;;;;6.00;1.10;;;3.70;93.70;;;;;;4997256;28;20022;-76
2021/10/24 01:45:54;;;;;;;2.85;0.55;;;3.60;94.10;;;;;;4979613;28;20038;-77
2021/10/24 01:48:20;;;;;;;4.10;1.00;;;3.60;94.60;;;;;;4996519;28;20050;-77
2021/10/24 01:50:47;;;;;;;5.78;0.93;;;3.60;94.80;;;;;;4979267;28;20050;-76
2021/10/24 01:53:22;;;;;;;5.13;0.55;;;3.60;95.20;;;;;;4996675;28;20988;-76
2021/10/24 01:55:48;;;;;;;3.90;0.60;;;3.60;95.40;;;;;;4979596;28;20034;-76
2021/10/24 01:58:14;;;;;;;5.90;1.35;;;3.60;95.60;;;;;;4996554;28;20450;-76
2021/10/24 02:00:40;;;;;;;;;;;3.80;95.60;;;;;;4998031;28;20026;-76
2021/10/24 02:03:06;;;;;;;4.68;0.82;;;3.70;95.50;;;;;;4980127;28;19905;-76
2021/10/24 02:05:32;;;;;;;;;;;3.80;95.50;;;;;;4980304;28;20109;-76
2021/10/24 02:07:57;;;;;;;5.63;0.73;;;3.80;95.60;;;;;;4998710;28;20028;-76
2021/10/24 02:10:23;;;;;;;;;;;3.80;95.70;;;;;;5000932;28;20618;-75
2021/10/24 02:12:49;;;;;;;8.93;1.10;;;3.70;95.90;;;;;;4996622;28;19905;-76
2021/10/24 02:15:14;;;;;;;;;;;3.70;96.10;;;;;;4978870;28;20804;-77
2021/10/24 02:17:40;;;;;;;4.30;1.20;;;3.70;96.40;;;;;;4994248;28;19940;-76
2021/10/24 02:20:07;;;;;;;;;;;3.60;96.50;;;;;;4979171;28;20026;-76
2021/10/24 02:22:33;;;;;;;5.82;0.88;;;3.70;96.50;;;;;;4995870;28;19910;-76
2021/10/24 02:24:59;;;;;;;7.43;0.90;;;3.60;96.60;;;;;;4995983;28;20035;-76
2021/10/24 02:27:25;;;;;;;8.27;0.85;;;3.60;96.60;;;;;;4996217;28;20027;-76
2021/10/24 02:29:50;;;;;;;5.03;0.55;;;3.70;96.80;;;;;;4996842;28;20039;-76
2021/10/24 02:32:17;;;;;;;5.63;0.73;;;3.80;96.60;;;;;;4996264;28;20053;-77
2021/10/24 02:34:43;;;;;;;8.30;1.85;;;3.80;96.50;;;;;;4979775;28;20077;-75
2021/10/24 02:37:09;;;;;;;;;;;3.80;96.40;;;;;;4997190;28;20042;-76
2021/10/24 02:39:35;;;;;;;4.85;0.82;;;3.90;96.10;;;;;;4997165;28;19910;-76
2021/10/24 02:42:01;;;;;;;3.20;0.80;;;4.00;95.80;;;;;;4997208;28;20113;-77
2021/10/24 02:44:26;;;;;;;;;;;4.00;95.60;;;;;;4980163;28;20450;-77
2021/10/24 02:46:58;;;;;;;5.32;0.70;;;4.00;95.60;;;;;;4980447;28;19906;-76
2021/10/24 02:49:25;;;;;;;3.17;0.75;;;4.00;95.70;;;;;;4979752;28;20035;-76
2021/10/24 02:51:51;;;;;;;2.83;0.68;;;3.80;95.80;;;;;;4975564;28;20480;-76
2021/10/24 02:54:18;;;;;;;7.03;1.02;;;3.90;96.00;;;;;;4974806;28;20019;-76
2021/10/24 02:56:45;;;;;;;6.30;0.90;;;3.70;96.20;;;;;;4975329;28;20035;-77
2021/10/24 02:59:11;;;;;;;15.50;2.22;;;3.60;96.30;;;;;;4972553;28;20031;-76
2021/10/24 03:01:37;;;;;;;;;;;3.50;96.60;;;;;;4974901;28;20034;-76
2021/10/24 03:04:03;;;;;;;16.52;4.63;;;3.40;96.70;;;;;;4975626;28;20000;-76
2021/10/24 03:06:30;;;;;;;11.50;2.00;;;3.30;97.00;;;;;;4973719;28;20038;-76
2021/10/24 03:08:56;;;;;;;6.50;1.20;;;3.20;97.30;;;;;;4973964;28;20031;-76
2021/10/24 03:11:21;;;;;;;;;;;3.20;97.60;;;;;;4975905;28;20039;-76
2021/10/24 03:13:47;;;;;;;4.15;0.80;;;3.10;97.80;;;;;;4974309;28;19913;-76
2021/10/24 03:16:13;;;;;;;5.22;1.00;;;3.00;98.00;;;;;;4974331;28;20039;-75
2021/10/24 03:18:38;;;;;;;;;;;3.00;98.10;;;;;;4974968;28;20030;-76
2021/10/24 03:21:04;;;;;;;7.97;1.33;;;2.90;98.30;;;;;;4990787;28;19910;-76
2021/10/24 03:23:30;;;;;;;;;;;2.80;98.60;;;;;;4974394;28;20034;-77
2021/10/24 03:25:56;;;;;;;7.00;1.33;;;2.80;99.10;;;;;;4976726;28;20290;-76
2021/10/24 03:28:22;;;;;;;;;;;2.80;99.30;;;;;;4974954;28;20022;-76
2021/10/24 03:30:47;;;;;;;6.68;1.50;;;2.70;99.60;;;;;;4991757;28;19914;-76
2021/10/24 03:33:13;;;;;;;;;;;2.60;99.80;;;;;;4975481;28;20119;-76
2021/10/24 03:35:39;;;;;;;8.20;2.15;;;2.60;99.90;;;;;;4977130;28;20254;-76
2021/10/24 03:38:04;;;;;;;;;;;2.60;99.90;;;;;;4978981;28;20050;-76
2021/10/24 03:40:30;;;;;;;8.25;2.45;;;2.60;99.90;;;;;;4991666;28;19957;-76
2021/10/24 03:42:55;;;;;;;;;;;2.60;99.90;;;;;;4977119;28;20484;-76
2021/10/24 03:45:21;;;;;;;5.43;1.33;;;2.60;99.90;;;;;;4979664;28;19956;-76
2021/10/24 03:47:47;;;;;;;;;;;2.70;99.90;;;;;;4982752;28;20027;-76
2021/10/24 03:50:13;;;;;;;5.40;1.25;;;2.70;99.90;;;;;;4991514;28;19999;-76
2021/10/24 03:52:38;;;;;;;4.43;1.17;;;2.70;99.90;;;;;;4986559;28;20062;-76
2021/10/24 03:55:10;;;;;;;5.45;0.70;;;2.80;99.90;;;;;;4992220;28;20214;-77
2021/10/24 03:57:38;;;;;;;5.43;1.70;;;2.80;99.90;;;;;;4973447;28;20031;-77
2021/10/24 04:00:04;;;;;;;8.75;1.45;;;2.90;99.90;;;;;;4991759;28;20138;-76
2021/10/24 04:02:29;;;;;;;7.10;1.60;;;2.90;99.90;;;;;;4991590;28;20030;-75
2021/10/24 04:04:55;;;;;;;;;;;2.90;99.90;;;;;;4992235;28;20447;-76
2021/10/24 04:07:21;;;;;;;24.27;4.88;;;2.80;99.90;;;;;;4974168;28;20502;-76
2021/10/24 04:09:46;;;;;;;10.85;3.60;;;2.80;99.90;;;;;;4974612;28;20230;-76
2021/10/24 04:12:12;;;;;;;;;;;2.70;99.90;;;;;;4975491;28;20650;-76
2021/10/24 04:14:38;;;;;;;10.80;2.88;;;2.70;99.90;;;;;;4973456;28;19925;-76
2021/10/24 04:17:06;;;;;;;;;;;2.50;99.90;;;;;;4971288;28;20049;-75
2021/10/24 04:19:34;;;;;;;5.82;2.38;;;2.50;99.90;;;;;;4989741;28;19909;-77
2021/10/24 04:22:00;;;;;;;11.35;2.50;;;2.40;99.90;;;;;;4989902;28;20038;-75
2021/10/24 04:24:26;;;;;;;;;;;2.40;99.90;;;;;;4972398;28;20036;-76
2021/10/24 04:26:57;;;;;;;7.22;1.13;;;2.30;99.90;;;;;;4990021;28;19912;-75
2021/10/24 04:29:23;;;;;;;6.45;1.50;;;2.20;99.90;;;;;;4989809;28;20034;-75
2021/10/24 04:31:49;;;;;;;;;;;2.20;99.90;;;;;;4991557;28;20076;-77
2021/10/24 04:34:14;;;;;;;7.07;2.67;;;2.20;99.90;;;;;;4973487;28;19910;-76
2021/10/24 04:36:40;;;;;;;;;;;2.20;99.90;;;;;;4993627;28;20037;-76
2021/10/24 04:39:06;;;;;;;11.38;3.55;;;2.20;99.90;;;;;;4975317;28;20349;-76
2021/10/24 04:41:31;;;;;;;;;;;2.10;99.90;;;;;;4994125;28;20018;-76
2021/10/24 04:43:57;;;;;;;10.50;2.70;;;2.00;99.90;;;;;;4991840;28;20367;-76
2021/10/24 04:46:23;;;;;;;;;;;2.10;99.90;;;;;;4993558;28;20054;-76
2021/10/24 04:48:49;;;;;;;8.82;3.30;;;2.20;99.90;;;;;;4993997;28;19971;-76
2021/10/24 04:51:14;;;;;;;;;;;2.20;99.90;;;;;;4994426;28;20047;-76
2021/10/24 04:53:40;;;;;;;9.38;3.60;;;2.10;99.90;;;;;;4976759;28;19916;-76
2021/10/24 04:56:06;;;;;;;;;;;2.10;99.90;;;;;;4994878;28;20057;-76
2021/10/24 04:58:32;;;;;;;12.02;4.80;;;2.10;99.90;;;;;;4992261;28;19913;-76
2021/10/24 05:00:57;;;;;;;;;;;2.10;99.90;;;;;;4993531;28;20030;-76
2021/10/24 05:03:23;;;;;;;10.07;2.78;;;2.10;99.90;;;;;;4994850;28;19972;-76
2021/10/24 05:05:49;;;;;;;;;;;2.20;99.90;;;;;;4978436;28;20418;-76
2021/10/24 05:08:15;;;;;;;8.17;2.07;;;2.30;99.90;;;;;;4993675;28;20320;-76
2021/10/24 05:10:41;;;;;;;;;;;2.40;99.90;;;;;;4996000;28;20720;-75
2021/10/24 05:13:07;;;;;;;7.20;2.08;;;2.40;99.90;;;;;;4998681;28;19941;-76
2021/10/24 05:15:33;;;;;;;6.97;2.70;;;2.50;99.90;;;;;;4981299;28;20117;-76
2021/10/24 05:17:59;;;;;;;;;;;2.50;99.90;;;;;;4999474;28;20050;-76
2021/10/24 05:20:24;;;;;;;8.02;3.03;;;2.40;99.90;;;;;;4996106;28;19917;-76
2021/10/24 05:22:50;;;;;;;;;;;2.40;99.90;;;;;;5000523;28;20054;-77
2021/10/24 05:25:16;;;;;;;10.20;2.50;;;2.40;99.90;;;;;;4998032;28;19909;-75
2021/10/24 05:27:42;;;;;;;;;;;2.40;99.90;;;;;;5002318;28;20035;-76
2021/10/24 05:30:08;;;;;;;7.20;2.88;;;2.40;99.90;;;;;;4986887;28;19956;-77
2021/10/24 05:32:34;;;;;;;10.93;3.10;;;2.50;99.90;;;;;;5000602;28;20092;-76
2021/10/24 05:34:59;;;;;;;;;;;2.50;99.90;;;;;;4995598;28;20050;-76
2021/10/24 05:37:25;;;;;;;15.32;7.03;;;2.50;99.90;;;;;;4994924;28;19980;-76
2021/10/24 05:39:51;;;;;;;;;;;2.50;99.90;;;;;;4995245;28;20030;-76
2021/10/24 05:42:17;;;;;;;26.58;13.10;;;2.50;99.90;;;;;;4994110;28;20463;-76
2021/10/24 05:44:43;;;;;;;;;;;2.60;99.90;;;;;;4995192;28;20097;-76
2021/10/24 05:47:09;;;;;;;25.02;11.57;;;2.70;99.90;;;;;;4995227;28;19914;-77
2021/10/24 05:49:35;;;;;;;;;;;2.70;99.90;;;;;;4976813;28;20057;-76
2021/10/24 05:52:00;;;;;;;18.60;6.45;;;2.70;99.90;;;;;;4994021;28;20315;-76
2021/10/24 05:54:26;;;;;;;;;;;2.70;99.90;;;;;;4996119;28;20574;-76
2021/10/24 05:56:52;;;;;;;14.82;6.25;;;2.80;99.90;;;;;;4994299;28;20735;-76
2021/10/24 05:59:17;;;;;;;;;;;2.80;99.90;;;;;;4994599;28;20077;-76
2021/10/24 06:01:43;;;;;;;22.98;8.95;;;2.90;99.90;;;;;;4995904;28;19913;-76
2021/10/24 06:04:08;;;;;;;;;;;2.90;99.90;;;;;;4977312;28;20202;-75
2021/10/24 06:06:34;;;;;;;35.92;11.18;;;3.00;99.90;;;;;;4994347;28;20025;-76
2021/10/24 06:09:01;;;;;;;30.98;11.10;;;3.10;99.90;;;;;;4994529;28;20034;-76
2021/10/24 06:11:33;;;;;;;53.88;15.07;;;3.10;99.90;;;;;;4976525;28;20327;-76
2021/10/24 06:13:59;;;;;;;99.57;19.52;;;3.20;99.90;;;;;;4976977;28;20089;-76
2021/10/24 06:16:24;;;;;;;;;;;3.50;99.90;;;;;;4995160;28;20023;-76
2021/10/24 06:18:51;;;;;;;27.95;9.73;;;3.90;99.90;;;;;;4994794;28;20267;-77
2021/10/24 06:21:17;;;;;;;28.33;11.85;;;4.40;99.90;;;;;;4995042;28;20104;-76
2021/10/24 06:23:43;;;;;;;24.15;10.60;;;5.10;99.70;;;;;;4977682;28;20034;-76
2021/10/24 06:26:08;;;;;;;19.98;7.93;;;5.80;98.40;;;;;;4992509;28;20053;-76
2021/10/24 06:28:34;;;;;;;19.27;8.30;;;6.50;96.00;;;;;;4990437;28;20034;-76
2021/10/24 06:31:00;;;;;;;;;;;7.30;94.50;;;;;;4988615;28;20051;-79
2021/10/24 06:33:26;;;;;;;10.95;4.63;;;8.00;91.80;;;;;;4986996;28;19909;-81
2021/10/24 06:35:52;;;;;;;14.60;6.28;;;8.70;90.40;;;;;;4988777;28;20118;-77
2021/10/24 06:38:19;;;;;;;14.13;5.57;;;9.40;86.70;;;;;;4988546;28;20553;-76
2021/10/24 06:40:47;;;;;;;13.32;5.22;;;9.70;79.50;;;;;;4970779;28;20045;-76
2021/10/24 06:43:12;;;;;;;9.55;4.47;;;9.80;78.00;;;;;;4970954;28;20030;-77
2021/10/24 06:45:38;;;;;;;;;;;9.90;77.40;;;;;;4971017;28;20068;-78
2021/10/24 06:48:04;;;;;;;21.90;5.35;;;9.80;75.60;;;;;;4988116;28;20292;-77
2021/10/24 06:50:30;;;;;;;;;;;9.50;76.70;;;;;;4987977;28;20120;-77
2021/10/24 06:52:56;;;;;;;20.73;7.85;;;9.40;76.30;;;;;;4987881;28;19991;-77
2021/10/24 06:55:22;;;;;;;12.90;5.15;;;9.20;77.50;;;;;;4987973;28;20085;-76
2021/10/24 06:57:54;;;;;;;;;;;9.20;78.60;;;;;;4989083;28;20034;-78
2021/10/24 07:00:21;;;;;;;20.17;7.53;;;9.20;77.50;;;;;;4988858;28;20205;-78
2021/10/24 07:02:49;;;;;;;21.63;8.10;;;9.20;78.90;;;;;;4972943;28;20122;-77
2021/10/24 07:05:15;;;;;;;28.45;10.93;;;9.30;78.50;;;;;;4993837;28;20395;-77
2021/10/24 07:07:41;;;;;;;32.90;13.80;;;9.30;78.50;;;;;;4975241;28;20164;-76
2021/10/24 07:10:07;;;;;;;;;;;9.40;78.10;;;;;;4989766;28;20542;-76
2021/10/24 07:12:34;;;;;;;27.98;12.02;;;9.50;77.40;;;;;;4971241;28;20067;-77
2021/10/24 07:14:59;;;;;;;14.07;6.45;;;9.60;77.70;;;;;;4971280;28;20053;-77
2021/10/24 07:17:25;;;;;;;;;;;9.70;76.80;;;;;;4972538;28;20018;-77
2021/10/24 07:19:50;;;;;;;9.63;4.47;;;9.90;74.70;;;;;;4988030;28;19914;-76
2021/10/24 07:22:16;;;;;;;;;;;9.90;74.20;;;;;;4989034;28;20022;-76
2021/10/24 07:24:42;;;;;;;7.50;1.58;;;9.90;72.80;;;;;;4970344;28;19913;-76
2021/10/24 07:27:08;;;;;;;;;;;10.00;70.90;;;;;;4987760;28;20019;-78
2021/10/24 07:29:33;;;;;;;9.60;1.38;;;9.90;69.70;;;;;;4969689;28;19910;-76
2021/10/24 07:31:59;;;;;;;8.68;2.17;;;9.90;70.30;;;;;;4987542;28;20041;-77
2021/10/24 07:34:25;;;;;;;;;;;9.90;70.50;;;;;;4987128;28;20523;-76
2021/10/24 07:36:51;;;;;;;4.10;1.42;;;9.90;69.80;;;;;;4987433;28;19913;-77
2021/10/24 07:39:16;;;;;;;;;;;9.90;70.30;;;;;;4970176;28;20093;-77
2021/10/24 07:41:44;;;;;;;5.53;1.73;;;10.00;69.90;;;;;;4969819;28;20290;-76
2021/10/24 07:44:12;;;;;;;8.98;2.35;;;10.00;69.80;;;;;;4969481;28;20045;-76
2021/10/24 07:46:38;;;;;;;7.15;2.08;;;10.20;69.30;;;;;;4987106;28;20026;-76
2021/10/24 07:49:03;;;;;;;;;;;10.20;68.60;;;;;;4970226;28;20388;-76
2021/10/24 07:51:30;;;;;;;6.07;3.58;;;10.30;68.60;;;;;;4985123;28;19941;-76
2021/10/24 07:53:56;;;;;;;7.93;2.90;;;10.40;68.80;;;;;;4987290;28;20050;-77
2021/10/24 07:56:22;;;;;;;;;;;10.50;67.80;;;;;;4970332;28;20073;-77
2021/10/24 07:58:48;;;;;;;12.25;5.50;;;10.50;67.20;;;;;;4969133;28;20309;-79
2021/10/24 08:01:15;;;;;;;;;;;10.60;67.40;;;;;;4970120;28;20030;-76
2021/10/24 08:03:41;;;;;;;12.30;3.80;;;10.70;66.80;;;;;;4987112;28;19919;-78
2021/10/24 08:06:07;;;;;;;;;;;10.90;65.40;;;;;;4970279;28;20600;-77
2021/10/24 08:08:35;;;;;;;8.90;2.42;;;11.00;64.40;;;;;;4986860;28;19909;-77
2021/10/24 08:11:00;;;;;;;15.30;3.05;;;11.20;64.00;;;;;;4969147;28;20038;-78
2021/10/24 08:13:26;;;;;;;;;;;11.50;64.20;;;;;;4986505;28;20595;-77
2021/10/24 08:15:52;;;;;;;8.15;2.42;;;11.70;62.50;;;;;;4986890;28;19910;-78
2021/10/24 08:18:17;;;;;;;;;;;12.20;62.30;;;;;;4987234;28;20472;-77
2021/10/24 08:20:45;;;;;;;12.10;2.17;;;12.70;60.20;;;;;;4986357;28;19910;-78
2021/10/24 08:23:12;;;;;;;6.70;1.75;;;13.30;58.20;;;;;;4986896;28;20027;-78
2021/10/24 08:25:37;;;;;;;7.82;2.15;;;14.00;56.50;;;;;;4986798;28;20019;-77
2021/10/24 08:28:03;;;;;;;;;;;14.70;54.80;;;;;;4986732;28;20034;-77
2021/10/24 08:30:29;;;;;;;6.53;2.15;;;15.30;52.10;;;;;;4986732;28;19918;-78
2021/10/24 08:32:55;;;;;;;5.45;1.70;;;16.00;50.90;;;;;;4969237;28;20026;-78
2021/10/24 08:35:22;;;;;;;7.28;1.77;;;16.50;49.20;;;;;;4986262;28;20042;-75
2021/10/24 08:37:49;;;;;;;8.05;3.53;;;16.90;48.20;;;;;;4986374;28;20037;-78
2021/10/24 08:40:15;;;;;;;17.48;5.85;;;17.40;46.70;;;;;;4986376;28;20030;-78
2021/10/24 08:42:42;;;;;;;14.55;3.65;;;17.70;45.50;;;;;;4968639;28;20180;-78
2021/10/24 08:45:12;;;;;;;23.17;9.77;;;18.10;44.30;;;;;;4986893;28;20514;-78
2021/10/24 08:47:42;;;;;;;40.60;17.52;;;18.30;43.40;;;;;;4972356;28;20643;-78
2021/10/24 08:50:10;;;;;;;18.08;7.47;;;18.60;42.90;;;;;;4990360;28;20712;-78
2021/10/24 08:52:39;;;;;;;21.30;8.10;;;18.80;41.50;;;;;;4989584;28;20081;-78
2021/10/24 08:55:07;;;;;;;11.50;4.50;;;19.10;41.40;;;;;;4990288;28;20105;-78
2021/10/24 08:57:34;;;;;;;5.93;2.13;;;19.40;40.20;;;;;;4989325;28;20030;-77
2021/10/24 09:00:00;;;;;;;5.95;2.63;;;19.40;39.50;;;;;;4972559;28;20042;-79
2021/10/24 09:02:52;;;;;;;7.18;2.05;;;19.40;39.50;;;;;;4971898;28;20034;-78
2021/10/24 09:05:36;;;;;;;6.60;2.33;;;19.50;38.60;;;;;;4990206;28;20030;-78
2021/10/24 09:08:03;;;;;;;14.25;7.90;;;19.50;38.70;;;;;;4990093;28;20506;-78
2021/10/24 09:10:45;;;;;;;8.30;5.05;;;19.70;38.80;;;;;;4989147;28;20503;-77
2021/10/24 09:13:18;;;;;;;6.85;2.47;;;20.10;38.00;;;;;;4989099;28;20038;-77
2021/10/24 09:15:47;;;;;;;5.85;2.83;;;20.40;37.20;;;;;;4989680;28;20052;-77
2021/10/24 09:18:13;;;;;;;7.03;3.22;;;20.50;36.60;;;;;;4990534;28;20140;-76
2021/10/24 09:20:40;;;;;;;5.93;2.20;;;20.40;36.70;;;;;;4989879;28;20030;-77
2021/10/24 09:23:07;;;;;;;9.30;3.42;;;20.50;36.40;;;;;;4989578;28;20038;-78
2021/10/24 09:25:33;;;;;;;9.75;2.95;;;20.60;36.10;;;;;;4989343;28;20025;-77
2021/10/24 09:28:03;;;;;;;8.10;3.20;;;20.60;35.70;;;;;;4988828;28;20491;-78
2021/10/24 09:30:35;;;;;;;3.85;1.70;;;20.50;35.70;;;;;;4971545;28;20030;-78
2021/10/24 09:33:09;;;;;;;9.48;2.75;;;20.10;36.00;;;;;;4989645;28;20762;-77
2021/10/24 09:35:40;;;;;;;5.43;1.80;;;19.90;36.20;;;;;;4989114;28;20045;-77
2021/10/24 09:38:18;;;;;;;11.93;2.13;;;20.00;36.20;;;;;;4989519;28;20045;-77
2021/10/24 09:40:47;;;;;;;8.70;3.00;;;19.70;36.20;;;;;;4988937;28;20053;-77
2021/10/24 09:43:21;;;;;;;12.90;3.50;;;19.00;37.30;;;;;;4987690;28;20034;-76
2021/10/24 09:45:58;;;;;;;10.57;3.00;;;18.60;37.40;;;;;;4970604;28;20034;-77
2021/10/24 09:48:24;;;;;;;;;;;17.50;38.90;;;;;;4971448;28;20546;-76
2021/10/24 09:51:00;;;;;;;7.32;2.67;;;16.80;40.40;;;;;;4988397;28;19921;-78
2021/10/24 09:53:27;;;;;;;151.93;70.38;;;16.10;42.00;;;;;;4988083;28;20042;-77
2021/10/24 09:55:53;;;;;;;20.15;7.30;;;15.60;42.70;;;;;;4988396;28;20034;-76
2021/10/24 09:58:32;;;;;;;6.82;2.10;;;15.20;43.40;;;;;;4986948;28;20030;-77
2021/10/24 10:01:02;;;;;;;7.60;2.13;;;14.80;44.80;;;;;;4970726;28;20466;-77
2021/10/24 10:03:28;;;;;;;8.90;2.25;;;14.50;45.60;;;;;;4987962;28;20034;-77
2021/10/24 10:05:56;;;;;;;;;;;14.30;46.50;;;;;;4988460;28;20656;-78
2021/10/24 10:08:22;;;;;;;7.13;2.63;;;14.10;47.00;;;;;;4987493;28;20341;-77
2021/10/24 10:10:48;;;;;;;;;;;13.90;47.20;;;;;;4988494;28;20100;-76
2021/10/24 10:13:18;;;;;;;6.68;2.60;;;13.90;47.90;;;;;;4988289;28;19961;-77
2021/10/24 10:15:47;;;;;;;9.52;2.97;;;13.80;47.50;;;;;;4988778;28;20022;-78
2021/10/24 10:18:12;;;;;;;7.03;2.17;;;13.70;47.90;;;;;;4970913;28;20038;-75
2021/10/24 10:20:51;;;;;;;;;;;13.50;48.30;;;;;;4988646;28;20595;-78
2021/10/24 10:23:36;;;;;;;6.55;2.03;;;13.50;48.60;;;;;;4970711;28;19910;-77
2021/10/24 10:26:33;;;;;;;6.45;1.50;;;13.30;49.00;;;;;;4987893;28;20096;-76
2021/10/24 10:28:59;;;;;;;6.35;1.50;;;13.10;48.80;;;;;;4987718;28;20042;-76
2021/10/24 10:31:24;;;;;;;6.70;1.45;;;13.00;49.10;;;;;;4969581;28;20407;-77
2021/10/24 10:34:00;;;;;;;;;;;13.10;48.50;;;;;;4988085;28;20030;-76
2021/10/24 10:36:44;;;;;;;5.22;1.40;;;13.10;49.00;;;;;;4971932;28;19918;-76
2021/10/24 10:39:32;;;;;;;6.78;1.40;;;13.00;49.50;;;;;;4987232;28;20057;-77
2021/10/24 10:42:00;;;;;;;7.15;1.25;;;13.00;49.80;;;;;;4986518;28;20080;-76
2021/10/24 10:44:26;;;;;;;4.85;1.40;;;13.00;48.70;;;;;;4987253;28;20295;-77
2021/10/24 10:46:52;;;;;;;;;;;12.90;49.30;;;;;;4987339;28;20410;-76
2021/10/24 10:49:21;;;;;;;6.75;1.23;;;12.80;50.60;;;;;;4969416;28;19917;-76
2021/10/24 10:51:47;;;;;;;7.22;1.08;;;12.80;50.50;;;;;;4987041;28;20374;-76
2021/10/24 10:54:13;;;;;;;8.68;1.65;;;12.80;50.20;;;;;;4987048;28;20056;-76
2021/10/24 10:56:43;;;;;;;;;;;12.70;50.00;;;;;;4986710;28;20507;-77
2021/10/24 10:59:26;;;;;;;7.20;1.40;;;12.70;50.20;;;;;;4986539;28;20008;-78
2021/10/24 11:01:52;;;;;;;6.32;1.60;;;12.60;50.10;;;;;;4988226;28;20466;-78
2021/10/24 11:04:19;;;;;;;;;;;12.80;50.40;;;;;;4970938;28;20129;-78
2021/10/24 11:06:47;;;;;;;3.55;1.10;;;12.80;50.20;;;;;;4987566;28;19941;-77
2021/10/24 11:09:38;;;;;;;7.57;2.60;;;12.80;49.90;;;;;;4969483;28;20034;-77
2021/10/24 11:12:06;;;;;;;6.88;2.13;;;12.90;49.40;;;;;;4987200;28;20034;-77
2021/10/24 11:14:31;;;;;;;7.20;1.88;;;12.80;49.40;;;;;;4969601;28;20638;-78
2021/10/24 11:16:57;;;;;;;;;;;12.80;50.00;;;;;;4986194;28;20102;-77
2021/10/24 11:19:26;;;;;;;6.00;1.95;;;12.80;49.60;;;;;;4985798;28;20419;-76
2021/10/24 11:21:52;;;;;;;5.38;1.35;;;12.80;49.80;;;;;;4987381;28;20518;-75
2021/10/24 11:24:19;;;;;;;5.20;1.17;;;12.80;49.80;;;;;;4985980;28;20038;-79
2021/10/24 11:26:52;;;;;;;4.50;0.98;;;12.80;49.70;;;;;;4985808;28;20134;-79
2021/10/24 11:29:18;;;;;;;5.53;1.25;;;12.80;50.00;;;;;;4969920;28;20057;-76
2021/10/24 11:31:43;;;;;;;;;;;12.90;49.70;;;;;;4988440;28;20700;-76
2021/10/24 11:34:09;;;;;;;12.48;4.07;;;12.90;49.40;;;;;;4987947;28;20322;-78
2021/10/24 11:36:37;;;;;;;7.63;3.80;;;12.80;49.40;;;;;;4970151;28;20034;-78
2021/10/24 11:39:04;;;;;;;4.13;1.45;;;12.80;49.40;;;;;;4987488;28;20037;-76
2021/10/24 11:41:31;;;;;;;5.13;1.05;;;12.70;48.90;;;;;;4968090;28;20388;-76
2021/10/24 11:44:08;;;;;;;3.63;1.20;;;12.60;48.50;;;;;;4969000;28;20478;-75
2021/10/24 11:46:35;;;;;;;3.95;1.17;;;12.60;49.20;;;;;;4986011;28;20042;-76
2021/10/24 11:49:04;;;;;;;5.22;1.20;;;12.60;49.80;;;;;;4986272;28;20023;-76
2021/10/24 11:51:33;;;;;;;5.43;1.17;;;12.70;50.00;;;;;;4968266;28;20058;-76
2021/10/24 11:54:06;;;;;;;5.85;1.30;;;12.80;49.80;;;;;;4969451;28;20022;-76
2021/10/24 11:59:38;;;;;;;6.03;1.10;;;12.80;49.70;;;;;;4986660;28;20049;-79
2021/10/24 12:02:10;;;;;;;4.03;1.17;;;12.80;49.50;;;;;;4987356;28;20032;-75
2021/10/24 12:04:36;;;;;;;9.30;2.05;;;12.80;49.50;;;;;;4968376;28;20026;-78
2021/10/24 12:07:04;;;;;;;;;;;12.80;49.40;;;;;;4969074;28;20041;-77
2021/10/24 12:09:46;;;;;;;6.53;1.10;;;12.80;48.80;;;;;;4968709;28;19968;-77
2021/10/24 12:12:23;;;;;;;3.90;1.23;;;12.90;49.00;;;;;;4985928;28;20125;-77
2021/10/24 12:14:58;;;;;;;6.20;1.25;;;12.90;49.00;;;;;;4968221;28;20491;-77
2021/10/24 12:17:36;;;;;;;4.72;1.30;;;12.90;48.70;;;;;;4986196;28;20084;-77
2021/10/24 12:20:11;;;;;;;5.30;1.25;;;12.90;49.10;;;;;;4986980;28;20030;-75
2021/10/24 12:22:43;;;;;;;8.80;1.55;;;13.00;49.10;;;;;;4973184;28;20061;-75
2021/10/24 12:25:15;;;;;;;8.68;1.67;;;13.00;49.00;;;;;;4990110;28;20814;-78
2021/10/24 12:27:43;;;;;;;6.18;1.38;;;13.10;48.70;;;;;;4990961;28;20029;-79
2021/10/24 12:30:18;;;;;;;7.03;1.65;;;13.20;48.00;;;;;;4990934;28;20038;-78
2021/10/24 12:33:00;;;;;;;5.93;1.15;;;13.10;48.20;;;;;;4990957;28;20073;-78
2021/10/24 12:35:26;;;;;;;5.53;1.05;;;13.20;47.60;;;;;;4973236;28;20026;-76
2021/10/24 12:38:03;;;;;;;10.73;1.60;;;13.30;47.50;;;;;;4972706;28;20109;-77
2021/10/24 12:40:32;;;;;;;5.80;1.05;;;13.50;47.10;;;;;;4989135;28;20495;-77
2021/10/24 12:43:11;;;;;;;7.95;1.17;;;13.50;46.50;;;;;;4963782;28;20030;-78
2021/10/24 12:45:55;;;;;;;4.40;0.95;;;13.50;46.60;;;;;;4973296;28;20068;-76
2021/10/24 12:48:24;;;;;;;4.75;0.80;;;13.60;46.20;;;;;;4990655;28;20034;-79
2021/10/24 12:50:51;;;;;;;6.30;1.20;;;13.70;45.80;;;;;;4990401;28;20520;-78
2021/10/24 12:53:19;;;;;;;4.55;0.93;;;13.80;45.70;;;;;;4975376;28;20045;-79
2021/10/24 12:56:00;;;;;;;3.65;1.00;;;13.80;45.60;;;;;;4990185;28;20034;-77
2021/10/24 12:58:26;;;;;;;4.72;1.02;;;13.80;45.00;;;;;;4990173;28;20566;-78
2021/10/24 13:00:51;;;;;;;;;;;13.80;44.40;;;;;;4990822;28;20073;-78
2021/10/24 13:03:17;;;;;;;3.60;1.08;;;13.70;44.20;;;;;;4990418;28;20029;-78
2021/10/24 13:05:42;;;;;;;;;;;13.70;44.30;;;;;;4973323;28;20092;-77
2021/10/24 13:08:08;;;;;;;6.20;1.15;;;13.60;45.00;;;;;;4989971;28;20338;-78
2021/10/24 13:10:34;;;;;;;;;;;13.60;45.50;;;;;;4989977;28;20398;-77
2021/10/24 13:13:01;;;;;;;6.53;1.23;;;13.50;46.00;;;;;;4990325;28;19928;-78
2021/10/24 13:15:26;;;;;;;5.70;1.20;;;13.60;46.20;;;;;;4972398;28;20041;-78
2021/10/24 13:17:52;;;;;;;;;;;13.70;45.20;;;;;;4990423;28;20022;-78